Los Gatos, California
Current Conditions -  °F | °C
As of 1:29 AM on Friday 31 Oct 2014 (Local Time) from KSJC Reporting Station
Light Rain Light Rain  
Wind Chill: 15°   Ceiling: 3200
Heat Index: 15°   Visibility: 7mi
Dew Point: 13°   Wind: 7mph
Humidity: 88%   Direction: 170°S
Pressure: 29.92"   Gusts: NA
Location:  37.22°N, 121.97°W
Report Text: KSJC 310829Z AUTO 17006KT 7SM -RA FEW025 BKN032 OVC041 15/13 A2992 RMK AO2 RAB29 P0000
Loading
Personal Weather Stations






























Interactive Weather Map
Tropical Storm Tracking
New forecast layout! Learn more

10-Day Weather Forecast

Advertisements
Track Severe Weather on mobile